sensor_id;sensor_type;location;lat;lon;timestamp;P1;durP1;ratioP1;P2;durP2;ratioP2
44995;SDS011;30729;49.486;10.792;2023-10-08T00:00:44;7.90;;;2.75;;
44995;SDS011;30729;49.486;10.792;2023-10-08T00:03:14;10.00;;;2.70;;
44995;SDS011;30729;49.486;10.792;2023-10-08T00:05:40;8.15;;;3.03;;
44995;SDS011;30729;49.486;10.792;2023-10-08T00:08:06;8.32;;;2.72;;
44995;SDS011;30729;49.486;10.792;2023-10-08T00:10:38;7.55;;;2.95;;
44995;SDS011;30729;49.486;10.792;2023-10-08T00:15:35;7.53;;;3.42;;
44995;SDS011;30729;49.486;10.792;2023-10-08T00:18:01;9.48;;;3.15;;
44995;SDS011;30729;49.486;10.792;2023-10-08T00:20:26;7.93;;;2.85;;
44995;SDS011;30729;49.486;10.792;2023-10-08T00:22:59;9.38;;;2.70;;
44995;SDS011;30729;49.486;10.792;2023-10-08T00:25:27;9.02;;;2.72;;
44995;SDS011;30729;49.486;10.792;2023-10-08T00:27:52;10.90;;;2.63;;
44995;SDS011;30729;49.486;10.792;2023-10-08T00:30:17;9.00;;;2.40;;
44995;SDS011;30729;49.486;10.792;2023-10-08T00:32:43;9.70;;;2.80;;
44995;SDS011;30729;49.486;10.792;2023-10-08T00:35:08;7.28;;;2.75;;
44995;SDS011;30729;49.486;10.792;2023-10-08T00:37:38;8.15;;;3.10;;
44995;SDS011;30729;49.486;10.792;2023-10-08T00:40:04;8.77;;;2.83;;
44995;SDS011;30729;49.486;10.792;2023-10-08T00:42:36;7.07;;;2.45;;
44995;SDS011;30729;49.486;10.792;2023-10-08T00:45:01;10.77;;;2.50;;
44995;SDS011;30729;49.486;10.792;2023-10-08T00:47:29;9.02;;;2.60;;
44995;SDS011;30729;49.486;10.792;2023-10-08T00:49:59;8.77;;;3.30;;
44995;SDS011;30729;49.486;10.792;2023-10-08T00:52:33;8.43;;;2.50;;
44995;SDS011;30729;49.486;10.792;2023-10-08T00:55:10;8.65;;;2.65;;
44995;SDS011;30729;49.486;10.792;2023-10-08T00:57:45;10.40;;;2.78;;
44995;SDS011;30729;49.486;10.792;2023-10-08T01:00:13;9.85;;;2.70;;
44995;SDS011;30729;49.486;10.792;2023-10-08T01:02:46;8.93;;;2.95;;
44995;SDS011;30729;49.486;10.792;2023-10-08T01:05:14;12.52;;;2.47;;
44995;SDS011;30729;49.486;10.792;2023-10-08T01:07:42;6.57;;;2.42;;
44995;SDS011;30729;49.486;10.792;2023-10-08T01:10:10;10.38;;;2.70;;
44995;SDS011;30729;49.486;10.792;2023-10-08T01:12:36;9.40;;;3.22;;
44995;SDS011;30729;49.486;10.792;2023-10-08T01:15:09;8.32;;;2.83;;
44995;SDS011;30729;49.486;10.792;2023-10-08T01:17:53;7.93;;;2.28;;
44995;SDS011;30729;49.486;10.792;2023-10-08T01:20:50;8.88;;;2.97;;
44995;SDS011;30729;49.486;10.792;2023-10-08T01:23:17;9.20;;;2.90;;
44995;SDS011;30729;49.486;10.792;2023-10-08T01:25:46;6.70;;;2.97;;
44995;SDS011;30729;49.486;10.792;2023-10-08T01:28:15;9.57;;;3.22;;
44995;SDS011;30729;49.486;10.792;2023-10-08T01:30:51;11.18;;;3.00;;
44995;SDS011;30729;49.486;10.792;2023-10-08T01:33:18;8.30;;;2.72;;
44995;SDS011;30729;49.486;10.792;2023-10-08T01:35:46;7.20;;;2.63;;
44995;SDS011;30729;49.486;10.792;2023-10-08T01:38:13;8.05;;;2.88;;
44995;SDS011;30729;49.486;10.792;2023-10-08T01:40:39;10.75;;;3.35;;
44995;SDS011;30729;49.486;10.792;2023-10-08T01:43:04;8.38;;;2.97;;
44995;SDS011;30729;49.486;10.792;2023-10-08T01:45:30;8.55;;;2.63;;
44995;SDS011;30729;49.486;10.792;2023-10-08T01:47:56;7.93;;;2.63;;
44995;SDS011;30729;49.486;10.792;2023-10-08T01:50:22;7.43;;;2.65;;
44995;SDS011;30729;49.486;10.792;2023-10-08T01:52:48;8.80;;;2.80;;
44995;SDS011;30729;49.486;10.792;2023-10-08T01:55:13;8.23;;;2.70;;
44995;SDS011;30729;49.486;10.792;2023-10-08T01:57:42;6.50;;;2.55;;
44995;SDS011;30729;49.486;10.792;2023-10-08T02:00:08;9.13;;;2.70;;
44995;SDS011;30729;49.486;10.792;2023-10-08T02:02:34;6.43;;;2.88;;
44995;SDS011;30729;49.486;10.792;2023-10-08T02:04:59;9.38;;;3.30;;
44995;SDS011;30729;49.486;10.792;2023-10-08T02:07:24;7.22;;;2.53;;
44995;SDS011;30729;49.486;10.792;2023-10-08T02:09:49;6.80;;;2.58;;
44995;SDS011;30729;49.486;10.792;2023-10-08T02:12:15;12.20;;;2.90;;
44995;SDS011;30729;49.486;10.792;2023-10-08T02:14:40;8.90;;;2.83;;
44995;SDS011;30729;49.486;10.792;2023-10-08T02:17:06;7.13;;;2.50;;
44995;SDS011;30729;49.486;10.792;2023-10-08T02:19:34;10.50;;;2.70;;
44995;SDS011;30729;49.486;10.792;2023-10-08T02:22:00;9.40;;;3.22;;
44995;SDS011;30729;49.486;10.792;2023-10-08T02:24:25;7.20;;;2.80;;
44995;SDS011;30729;49.486;10.792;2023-10-08T02:26:51;8.73;;;2.93;;
44995;SDS011;30729;49.486;10.792;2023-10-08T02:29:16;9.95;;;2.55;;
44995;SDS011;30729;49.486;10.792;2023-10-08T02:31:42;8.27;;;2.60;;
44995;SDS011;30729;49.486;10.792;2023-10-08T02:34:08;9.43;;;2.85;;
44995;SDS011;30729;49.486;10.792;2023-10-08T02:36:34;8.43;;;2.92;;
44995;SDS011;30729;49.486;10.792;2023-10-08T02:39:01;11.73;;;2.83;;
44995;SDS011;30729;49.486;10.792;2023-10-08T02:41:31;8.98;;;2.47;;
44995;SDS011;30729;49.486;10.792;2023-10-08T02:43:56;6.18;;;2.38;;
44995;SDS011;30729;49.486;10.792;2023-10-08T02:46:24;9.60;;;2.90;;
44995;SDS011;30729;49.486;10.792;2023-10-08T02:48:51;7.85;;;2.95;;
44995;SDS011;30729;49.486;10.792;2023-10-08T02:51:17;8.98;;;2.90;;
44995;SDS011;30729;49.486;10.792;2023-10-08T02:53:45;10.07;;;2.97;;
44995;SDS011;30729;49.486;10.792;2023-10-08T02:56:11;8.48;;;2.75;;
44995;SDS011;30729;49.486;10.792;2023-10-08T02:58:39;8.60;;;2.92;;
44995;SDS011;30729;49.486;10.792;2023-10-08T03:01:05;6.97;;;2.53;;
44995;SDS011;30729;49.486;10.792;2023-10-08T03:03:30;12.40;;;2.78;;
44995;SDS011;30729;49.486;10.792;2023-10-08T03:05:57;9.45;;;3.22;;
44995;SDS011;30729;49.486;10.792;2023-10-08T03:08:22;10.82;;;2.47;;
44995;SDS011;30729;49.486;10.792;2023-10-08T03:10:48;7.90;;;2.65;;
44995;SDS011;30729;49.486;10.792;2023-10-08T03:13:14;8.18;;;2.78;;
44995;SDS011;30729;49.486;10.792;2023-10-08T03:15:41;9.23;;;2.92;;
44995;SDS011;30729;49.486;10.792;2023-10-08T03:18:11;7.22;;;2.58;;
44995;SDS011;30729;49.486;10.792;2023-10-08T03:20:39;11.00;;;3.60;;
44995;SDS011;30729;49.486;10.792;2023-10-08T03:23:14;11.02;;;3.25;;
44995;SDS011;30729;49.486;10.792;2023-10-08T03:25:54;7.97;;;2.85;;
44995;SDS011;30729;49.486;10.792;2023-10-08T03:28:29;7.88;;;3.08;;
44995;SDS011;30729;49.486;10.792;2023-10-08T03:30:59;15.05;;;3.22;;
44995;SDS011;30729;49.486;10.792;2023-10-08T03:33:32;11.48;;;3.00;;
44995;SDS011;30729;49.486;10.792;2023-10-08T03:35:59;9.07;;;2.65;;
44995;SDS011;30729;49.486;10.792;2023-10-08T03:38:25;9.05;;;2.63;;
44995;SDS011;30729;49.486;10.792;2023-10-08T03:40:54;8.70;;;2.88;;
44995;SDS011;30729;49.486;10.792;2023-10-08T03:43:22;7.57;;;2.90;;
44995;SDS011;30729;49.486;10.792;2023-10-08T03:45:59;10.48;;;3.47;;
44995;SDS011;30729;49.486;10.792;2023-10-08T03:48:30;10.70;;;2.88;;
44995;SDS011;30729;49.486;10.792;2023-10-08T03:51:01;8.77;;;2.67;;
44995;SDS011;30729;49.486;10.792;2023-10-08T03:53:31;8.45;;;2.70;;
44995;SDS011;30729;49.486;10.792;2023-10-08T03:55:59;7.47;;;2.90;;
44995;SDS011;30729;49.486;10.792;2023-10-08T03:58:26;9.50;;;2.95;;
44995;SDS011;30729;49.486;10.792;2023-10-08T04:00:55;7.50;;;2.63;;
44995;SDS011;30729;49.486;10.792;2023-10-08T04:03:43;10.63;;;2.90;;
44995;SDS011;30729;49.486;10.792;2023-10-08T04:06:20;9.02;;;2.92;;
44995;SDS011;30729;49.486;10.792;2023-10-08T04:08:55;10.45;;;3.28;;
44995;SDS011;30729;49.486;10.792;2023-10-08T04:11:36;10.35;;;3.25;;
44995;SDS011;30729;49.486;10.792;2023-10-08T04:14:08;8.82;;;2.83;;
44995;SDS011;30729;49.486;10.792;2023-10-08T04:16:33;8.77;;;2.70;;
44995;SDS011;30729;49.486;10.792;2023-10-08T04:19:02;9.90;;;3.92;;
44995;SDS011;30729;49.486;10.792;2023-10-08T04:21:28;7.80;;;2.72;;
44995;SDS011;30729;49.486;10.792;2023-10-08T04:23:53;10.43;;;3.55;;
44995;SDS011;30729;49.486;10.792;2023-10-08T04:26:22;10.18;;;3.03;;
44995;SDS011;30729;49.486;10.792;2023-10-08T04:28:53;11.68;;;3.17;;
44995;SDS011;30729;49.486;10.792;2023-10-08T04:31:22;9.37;;;3.20;;
44995;SDS011;30729;49.486;10.792;2023-10-08T04:33:53;9.05;;;2.95;;
44995;SDS011;30729;49.486;10.792;2023-10-08T04:36:19;9.40;;;2.70;;
44995;SDS011;30729;49.486;10.792;2023-10-08T04:38:45;8.93;;;2.92;;
44995;SDS011;30729;49.486;10.792;2023-10-08T04:41:12;9.50;;;3.08;;
44995;SDS011;30729;49.486;10.792;2023-10-08T04:43:39;8.75;;;2.65;;
44995;SDS011;30729;49.486;10.792;2023-10-08T04:46:07;10.52;;;3.10;;
44995;SDS011;30729;49.486;10.792;2023-10-08T04:48:47;9.40;;;3.25;;
44995;SDS011;30729;49.486;10.792;2023-10-08T04:51:12;7.43;;;2.67;;
44995;SDS011;30729;49.486;10.792;2023-10-08T04:53:38;8.35;;;2.63;;
44995;SDS011;30729;49.486;10.792;2023-10-08T04:56:09;9.32;;;3.03;;
44995;SDS011;30729;49.486;10.792;2023-10-08T04:58:43;10.38;;;3.15;;
44995;SDS011;30729;49.486;10.792;2023-10-08T05:01:12;9.25;;;3.10;;
44995;SDS011;30729;49.486;10.792;2023-10-08T05:03:52;9.43;;;3.00;;
44995;SDS011;30729;49.486;10.792;2023-10-08T05:06:33;7.60;;;2.70;;
44995;SDS011;30729;49.486;10.792;2023-10-08T05:11:35;7.22;;;2.97;;
44995;SDS011;30729;49.486;10.792;2023-10-08T05:14:16;8.85;;;2.65;;
44995;SDS011;30729;49.486;10.792;2023-10-08T05:16:56;9.38;;;3.58;;
44995;SDS011;30729;49.486;10.792;2023-10-08T05:19:40;8.27;;;3.03;;
44995;SDS011;30729;49.486;10.792;2023-10-08T05:22:07;9.68;;;3.58;;
44995;SDS011;30729;49.486;10.792;2023-10-08T05:24:51;8.75;;;3.22;;
44995;SDS011;30729;49.486;10.792;2023-10-08T05:27:36;8.55;;;3.20;;
44995;SDS011;30729;49.486;10.792;2023-10-08T05:30:17;6.72;;;2.60;;
44995;SDS011;30729;49.486;10.792;2023-10-08T05:33:06;8.50;;;3.45;;
44995;SDS011;30729;49.486;10.792;2023-10-08T05:35:37;9.07;;;3.13;;
44995;SDS011;30729;49.486;10.792;2023-10-08T05:38:05;8.07;;;2.95;;
44995;SDS011;30729;49.486;10.792;2023-10-08T05:40:50;9.60;;;3.22;;
44995;SDS011;30729;49.486;10.792;2023-10-08T05:43:25;11.75;;;3.72;;
44995;SDS011;30729;49.486;10.792;2023-10-08T05:46:05;10.57;;;4.15;;
44995;SDS011;30729;49.486;10.792;2023-10-08T05:48:46;14.00;;;3.45;;
44995;SDS011;30729;49.486;10.792;2023-10-08T05:51:32;8.10;;;2.90;;
44995;SDS011;30729;49.486;10.792;2023-10-08T05:54:22;8.52;;;3.13;;
44995;SDS011;30729;49.486;10.792;2023-10-08T05:59:31;9.82;;;2.95;;
44995;SDS011;30729;49.486;10.792;2023-10-08T06:02:03;9.32;;;3.20;;
44995;SDS011;30729;49.486;10.792;2023-10-08T06:07:33;9.77;;;3.33;;
44995;SDS011;30729;49.486;10.792;2023-10-08T06:10:12;10.77;;;3.30;;
44995;SDS011;30729;49.486;10.792;2023-10-08T06:12:51;13.82;;;3.85;;
44995;SDS011;30729;49.486;10.792;2023-10-08T06:15:26;9.57;;;3.47;;
44995;SDS011;30729;49.486;10.792;2023-10-08T06:18:09;13.40;;;3.95;;
44995;SDS011;30729;49.486;10.792;2023-10-08T06:20:34;9.52;;;3.97;;
44995;SDS011;30729;49.486;10.792;2023-10-08T06:23:00;10.05;;;3.30;;
44995;SDS011;30729;49.486;10.792;2023-10-08T06:25:28;8.52;;;3.42;;
44995;SDS011;30729;49.486;10.792;2023-10-08T06:27:53;10.52;;;3.75;;
44995;SDS011;30729;49.486;10.792;2023-10-08T06:30:22;11.18;;;3.92;;
44995;SDS011;30729;49.486;10.792;2023-10-08T06:32:49;9.95;;;4.07;;
44995;SDS011;30729;49.486;10.792;2023-10-08T06:35:15;10.93;;;4.05;;
44995;SDS011;30729;49.486;10.792;2023-10-08T06:37:44;11.35;;;4.07;;
44995;SDS011;30729;49.486;10.792;2023-10-08T06:40:10;12.93;;;4.65;;
44995;SDS011;30729;49.486;10.792;2023-10-08T06:42:55;9.15;;;3.25;;
44995;SDS011;30729;49.486;10.792;2023-10-08T06:45:22;10.10;;;2.95;;
44995;SDS011;30729;49.486;10.792;2023-10-08T06:47:47;9.82;;;3.45;;
44995;SDS011;30729;49.486;10.792;2023-10-08T06:50:13;11.73;;;3.38;;
44995;SDS011;30729;49.486;10.792;2023-10-08T06:52:40;8.77;;;3.20;;
44995;SDS011;30729;49.486;10.792;2023-10-08T06:55:08;13.15;;;3.50;;
44995;SDS011;30729;49.486;10.792;2023-10-08T06:57:36;8.45;;;3.35;;
44995;SDS011;30729;49.486;10.792;2023-10-08T07:00:03;8.90;;;3.67;;
44995;SDS011;30729;49.486;10.792;2023-10-08T07:02:35;11.15;;;3.38;;
44995;SDS011;30729;49.486;10.792;2023-10-08T07:05:01;8.63;;;3.65;;
44995;SDS011;30729;49.486;10.792;2023-10-08T07:07:34;8.93;;;2.83;;
44995;SDS011;30729;49.486;10.792;2023-10-08T07:10:04;8.60;;;3.17;;
44995;SDS011;30729;49.486;10.792;2023-10-08T07:12:30;12.23;;;3.67;;
44995;SDS011;30729;49.486;10.792;2023-10-08T07:14:59;10.05;;;3.42;;
44995;SDS011;30729;49.486;10.792;2023-10-08T07:17:26;10.77;;;3.45;;
44995;SDS011;30729;49.486;10.792;2023-10-08T07:19:52;13.73;;;6.60;;
44995;SDS011;30729;49.486;10.792;2023-10-08T07:22:18;10.85;;;3.08;;
44995;SDS011;30729;49.486;10.792;2023-10-08T07:24:46;11.10;;;4.35;;
44995;SDS011;30729;49.486;10.792;2023-10-08T07:27:15;13.10;;;3.78;;
44995;SDS011;30729;49.486;10.792;2023-10-08T07:29:40;9.02;;;3.10;;
44995;SDS011;30729;49.486;10.792;2023-10-08T07:32:05;7.77;;;3.43;;
44995;SDS011;30729;49.486;10.792;2023-10-08T07:34:37;13.02;;;3.50;;
44995;SDS011;30729;49.486;10.792;2023-10-08T07:37:03;8.30;;;3.60;;
44995;SDS011;30729;49.486;10.792;2023-10-08T07:39:28;9.95;;;3.53;;
44995;SDS011;30729;49.486;10.792;2023-10-08T07:41:56;7.25;;;2.70;;
44995;SDS011;30729;49.486;10.792;2023-10-08T07:44:22;15.10;;;4.78;;
44995;SDS011;30729;49.486;10.792;2023-10-08T07:46:50;10.18;;;2.92;;
44995;SDS011;30729;49.486;10.792;2023-10-08T07:49:16;9.35;;;3.25;;
44995;SDS011;30729;49.486;10.792;2023-10-08T07:51:41;11.23;;;3.50;;
44995;SDS011;30729;49.486;10.792;2023-10-08T07:54:13;9.23;;;3.50;;
44995;SDS011;30729;49.486;10.792;2023-10-08T07:56:41;11.57;;;3.13;;
44995;SDS011;30729;49.486;10.792;2023-10-08T07:59:07;9.52;;;3.40;;
44995;SDS011;30729;49.486;10.792;2023-10-08T08:01:34;8.20;;;3.00;;
44995;SDS011;30729;49.486;10.792;2023-10-08T08:03:59;11.38;;;3.83;;
44995;SDS011;30729;49.486;10.792;2023-10-08T08:06:24;8.38;;;3.20;;
44995;SDS011;30729;49.486;10.792;2023-10-08T08:08:50;8.70;;;3.50;;
44995;SDS011;30729;49.486;10.792;2023-10-08T08:11:16;7.93;;;3.00;;
44995;SDS011;30729;49.486;10.792;2023-10-08T08:13:44;11.00;;;2.95;;
44995;SDS011;30729;49.486;10.792;2023-10-08T08:16:13;13.20;;;3.30;;
44995;SDS011;30729;49.486;10.792;2023-10-08T08:18:45;8.05;;;3.13;;
44995;SDS011;30729;49.486;10.792;2023-10-08T08:21:10;8.25;;;3.08;;
44995;SDS011;30729;49.486;10.792;2023-10-08T08:23:43;8.95;;;3.50;;
44995;SDS011;30729;49.486;10.792;2023-10-08T08:26:13;11.65;;;3.30;;
44995;SDS011;30729;49.486;10.792;2023-10-08T08:28:38;8.40;;;2.83;;
44995;SDS011;30729;49.486;10.792;2023-10-08T08:31:04;8.38;;;3.45;;
44995;SDS011;30729;49.486;10.792;2023-10-08T08:33:30;11.10;;;3.28;;
44995;SDS011;30729;49.486;10.792;2023-10-08T08:36:16;8.57;;;3.22;;
44995;SDS011;30729;49.486;10.792;2023-10-08T08:38:41;10.63;;;3.08;;
44995;SDS011;30729;49.486;10.792;2023-10-08T08:41:06;10.37;;;3.33;;
44995;SDS011;30729;49.486;10.792;2023-10-08T08:43:35;9.85;;;4.35;;
44995;SDS011;30729;49.486;10.792;2023-10-08T08:46:02;10.20;;;3.53;;
44995;SDS011;30729;49.486;10.792;2023-10-08T08:48:27;11.63;;;3.70;;
44995;SDS011;30729;49.486;10.792;2023-10-08T08:50:54;11.18;;;3.67;;
44995;SDS011;30729;49.486;10.792;2023-10-08T08:53:19;10.23;;;3.42;;
44995;SDS011;30729;49.486;10.792;2023-10-08T08:55:45;9.13;;;3.53;;
44995;SDS011;30729;49.486;10.792;2023-10-08T08:58:11;9.93;;;3.90;;
44995;SDS011;30729;49.486;10.792;2023-10-08T09:00:36;11.82;;;3.70;;
44995;SDS011;30729;49.486;10.792;2023-10-08T09:03:03;10.70;;;4.43;;
44995;SDS011;30729;49.486;10.792;2023-10-08T09:05:30;7.30;;;3.17;;
44995;SDS011;30729;49.486;10.792;2023-10-08T09:08:03;11.65;;;3.42;;
44995;SDS011;30729;49.486;10.792;2023-10-08T09:10:30;13.80;;;3.85;;
44995;SDS011;30729;49.486;10.792;2023-10-08T09:13:01;11.90;;;4.05;;
44995;SDS011;30729;49.486;10.792;2023-10-08T09:15:26;9.90;;;3.40;;
44995;SDS011;30729;49.486;10.792;2023-10-08T09:17:52;10.05;;;3.70;;
44995;SDS011;30729;49.486;10.792;2023-10-08T09:20:18;11.00;;;3.90;;
44995;SDS011;30729;49.486;10.792;2023-10-08T09:22:45;9.00;;;3.47;;
44995;SDS011;30729;49.486;10.792;2023-10-08T09:25:12;10.13;;;3.53;;
44995;SDS011;30729;49.486;10.792;2023-10-08T09:27:41;9.60;;;3.13;;
44995;SDS011;30729;49.486;10.792;2023-10-08T09:30:11;12.23;;;3.90;;
44995;SDS011;30729;49.486;10.792;2023-10-08T09:32:43;11.32;;;3.90;;
44995;SDS011;30729;49.486;10.792;2023-10-08T09:35:08;10.10;;;3.80;;
44995;SDS011;30729;49.486;10.792;2023-10-08T09:37:34;12.30;;;4.18;;
44995;SDS011;30729;49.486;10.792;2023-10-08T09:39:59;14.57;;;4.10;;
44995;SDS011;30729;49.486;10.792;2023-10-08T09:42:36;11.20;;;3.70;;
44995;SDS011;30729;49.486;10.792;2023-10-08T09:45:02;12.10;;;3.92;;
44995;SDS011;30729;49.486;10.792;2023-10-08T09:47:31;9.85;;;3.55;;
44995;SDS011;30729;49.486;10.792;2023-10-08T09:49:57;10.90;;;3.65;;
44995;SDS011;30729;49.486;10.792;2023-10-08T09:52:28;12.95;;;4.22;;
44995;SDS011;30729;49.486;10.792;2023-10-08T09:55:02;9.77;;;3.90;;
44995;SDS011;30729;49.486;10.792;2023-10-08T09:57:33;11.88;;;3.42;;
44995;SDS011;30729;49.486;10.792;2023-10-08T09:59:58;11.48;;;4.15;;
44995;SDS011;30729;49.486;10.792;2023-10-08T10:02:23;14.02;;;3.90;;
44995;SDS011;30729;49.486;10.792;2023-10-08T10:04:52;9.15;;;4.35;;
44995;SDS011;30729;49.486;10.792;2023-10-08T10:07:17;11.88;;;3.80;;
44995;SDS011;30729;49.486;10.792;2023-10-08T10:09:44;12.18;;;3.38;;
44995;SDS011;30729;49.486;10.792;2023-10-08T10:12:15;12.63;;;3.80;;
44995;SDS011;30729;49.486;10.792;2023-10-08T10:14:43;10.50;;;4.00;;
44995;SDS011;30729;49.486;10.792;2023-10-08T10:17:12;10.55;;;4.22;;
44995;SDS011;30729;49.486;10.792;2023-10-08T10:19:39;9.63;;;3.45;;
44995;SDS011;30729;49.486;10.792;2023-10-08T10:22:10;12.63;;;4.32;;
44995;SDS011;30729;49.486;10.792;2023-10-08T10:24:36;10.55;;;3.83;;
44995;SDS011;30729;49.486;10.792;2023-10-08T10:27:13;10.68;;;4.32;;
44995;SDS011;30729;49.486;10.792;2023-10-08T10:29:42;8.32;;;3.40;;
44995;SDS011;30729;49.486;10.792;2023-10-08T10:32:10;10.50;;;4.68;;
44995;SDS011;30729;49.486;10.792;2023-10-08T10:34:37;13.07;;;3.80;;
44995;SDS011;30729;49.486;10.792;2023-10-08T10:37:03;10.57;;;4.47;;
44995;SDS011;30729;49.486;10.792;2023-10-08T10:39:34;11.52;;;3.92;;
44995;SDS011;30729;49.486;10.792;2023-10-08T10:42:04;12.70;;;3.95;;
44995;SDS011;30729;49.486;10.792;2023-10-08T10:44:31;11.48;;;4.03;;
44995;SDS011;30729;49.486;10.792;2023-10-08T10:46:57;12.30;;;3.72;;
44995;SDS011;30729;49.486;10.792;2023-10-08T10:49:40;8.93;;;4.10;;
44995;SDS011;30729;49.486;10.792;2023-10-08T10:52:14;13.27;;;4.10;;
44995;SDS011;30729;49.486;10.792;2023-10-08T10:54:56;11.20;;;3.67;;
44995;SDS011;30729;49.486;10.792;2023-10-08T10:57:47;9.45;;;3.42;;
44995;SDS011;30729;49.486;10.792;2023-10-08T11:00:20;9.98;;;3.70;;
44995;SDS011;30729;49.486;10.792;2023-10-08T11:02:57;9.57;;;3.53;;
44995;SDS011;30729;49.486;10.792;2023-10-08T11:05:27;11.40;;;4.68;;
44995;SDS011;30729;49.486;10.792;2023-10-08T11:07:56;12.00;;;3.67;;
44995;SDS011;30729;49.486;10.792;2023-10-08T11:10:30;10.60;;;4.47;;
44995;SDS011;30729;49.486;10.792;2023-10-08T11:12:56;11.75;;;4.10;;
44995;SDS011;30729;49.486;10.792;2023-10-08T11:15:24;10.38;;;3.92;;
44995;SDS011;30729;49.486;10.792;2023-10-08T11:17:56;12.57;;;5.43;;
44995;SDS011;30729;49.486;10.792;2023-10-08T11:20:25;10.90;;;4.53;;
44995;SDS011;30729;49.486;10.792;2023-10-08T11:22:50;9.80;;;3.80;;
44995;SDS011;30729;49.486;10.792;2023-10-08T11:25:21;13.80;;;4.35;;
44995;SDS011;30729;49.486;10.792;2023-10-08T11:27:48;11.00;;;4.00;;
44995;SDS011;30729;49.486;10.792;2023-10-08T11:30:13;12.10;;;3.90;;
44995;SDS011;30729;49.486;10.792;2023-10-08T11:32:42;10.80;;;4.05;;
44995;SDS011;30729;49.486;10.792;2023-10-08T11:35:14;11.38;;;4.00;;
44995;SDS011;30729;49.486;10.792;2023-10-08T11:37:46;10.40;;;3.50;;
44995;SDS011;30729;49.486;10.792;2023-10-08T11:40:25;12.05;;;3.90;;
44995;SDS011;30729;49.486;10.792;2023-10-08T11:42:56;10.27;;;4.10;;
44995;SDS011;30729;49.486;10.792;2023-10-08T11:45:24;11.05;;;4.55;;
44995;SDS011;30729;49.486;10.792;2023-10-08T11:47:53;12.00;;;4.40;;
44995;SDS011;30729;49.486;10.792;2023-10-08T11:50:27;11.68;;;3.97;;
44995;SDS011;30729;49.486;10.792;2023-10-08T11:52:57;12.95;;;4.03;;
44995;SDS011;30729;49.486;10.792;2023-10-08T11:55:26;15.40;;;4.43;;
44995;SDS011;30729;49.486;10.792;2023-10-08T11:57:51;13.68;;;4.60;;
44995;SDS011;30729;49.486;10.792;2023-10-08T12:00:17;10.48;;;3.72;;
44995;SDS011;30729;49.486;10.792;2023-10-08T12:02:48;8.57;;;3.50;;
44995;SDS011;30729;49.486;10.792;2023-10-08T12:05:14;11.40;;;3.63;;
44995;SDS011;30729;49.486;10.792;2023-10-08T12:07:48;12.07;;;4.20;;
44995;SDS011;30729;49.486;10.792;2023-10-08T12:10:15;9.25;;;3.55;;
44995;SDS011;30729;49.486;10.792;2023-10-08T12:12:50;9.98;;;4.10;;
44995;SDS011;30729;49.486;10.792;2023-10-08T12:15:17;12.02;;;3.97;;
44995;SDS011;30729;49.486;10.792;2023-10-08T12:17:45;12.95;;;4.57;;
44995;SDS011;30729;49.486;10.792;2023-10-08T12:20:18;11.02;;;4.13;;
44995;SDS011;30729;49.486;10.792;2023-10-08T12:22:50;12.00;;;4.63;;
44995;SDS011;30729;49.486;10.792;2023-10-08T12:25:15;10.27;;;4.47;;
44995;SDS011;30729;49.486;10.792;2023-10-08T12:27:40;12.95;;;4.00;;
44995;SDS011;30729;49.486;10.792;2023-10-08T12:30:06;11.10;;;4.43;;
44995;SDS011;30729;49.486;10.792;2023-10-08T12:32:35;10.45;;;4.03;;
44995;SDS011;30729;49.486;10.792;2023-10-08T12:35:02;10.82;;;3.83;;
44995;SDS011;30729;49.486;10.792;2023-10-08T12:37:28;12.77;;;4.70;;
44995;SDS011;30729;49.486;10.792;2023-10-08T12:39:53;9.43;;;3.70;;
44995;SDS011;30729;49.486;10.792;2023-10-08T12:42:36;11.13;;;4.93;;
44995;SDS011;30729;49.486;10.792;2023-10-08T12:45:03;12.05;;;3.38;;
44995;SDS011;30729;49.486;10.792;2023-10-08T12:47:36;11.68;;;4.20;;
44995;SDS011;30729;49.486;10.792;2023-10-08T12:50:01;13.77;;;4.40;;
44995;SDS011;30729;49.486;10.792;2023-10-08T12:52:27;12.18;;;4.93;;
44995;SDS011;30729;49.486;10.792;2023-10-08T12:54:53;10.25;;;3.95;;
44995;SDS011;30729;49.486;10.792;2023-10-08T12:57:18;9.80;;;3.78;;
44995;SDS011;30729;49.486;10.792;2023-10-08T12:59:44;13.93;;;4.05;;
44995;SDS011;30729;49.486;10.792;2023-10-08T13:02:16;12.50;;;4.80;;
44995;SDS011;30729;49.486;10.792;2023-10-08T13:04:44;11.88;;;4.38;;
44995;SDS011;30729;49.486;10.792;2023-10-08T13:07:10;10.40;;;4.50;;
44995;SDS011;30729;49.486;10.792;2023-10-08T13:09:36;16.42;;;5.07;;
44995;SDS011;30729;49.486;10.792;2023-10-08T13:12:02;12.77;;;4.20;;
44995;SDS011;30729;49.486;10.792;2023-10-08T13:14:27;14.20;;;4.07;;
44995;SDS011;30729;49.486;10.792;2023-10-08T13:16:52;12.93;;;5.03;;
44995;SDS011;30729;49.486;10.792;2023-10-08T13:19:21;10.48;;;4.22;;
44995;SDS011;30729;49.486;10.792;2023-10-08T13:21:48;12.00;;;4.43;;
44995;SDS011;30729;49.486;10.792;2023-10-08T13:24:17;10.40;;;3.60;;
44995;SDS011;30729;49.486;10.792;2023-10-08T13:26:43;15.88;;;5.60;;
44995;SDS011;30729;49.486;10.792;2023-10-08T13:29:12;10.48;;;3.75;;
44995;SDS011;30729;49.486;10.792;2023-10-08T13:31:39;13.20;;;4.13;;
44995;SDS011;30729;49.486;10.792;2023-10-08T13:34:04;10.45;;;3.40;;
44995;SDS011;30729;49.486;10.792;2023-10-08T13:36:33;7.50;;;3.63;;
44995;SDS011;30729;49.486;10.792;2023-10-08T13:38:58;10.70;;;4.13;;
44995;SDS011;30729;49.486;10.792;2023-10-08T13:41:24;11.67;;;4.00;;
44995;SDS011;30729;49.486;10.792;2023-10-08T13:43:54;9.02;;;4.35;;
44995;SDS011;30729;49.486;10.792;2023-10-08T13:46:27;16.25;;;4.45;;
44995;SDS011;30729;49.486;10.792;2023-10-08T13:48:52;12.10;;;3.75;;
44995;SDS011;30729;49.486;10.792;2023-10-08T13:51:18;12.43;;;3.78;;
44995;SDS011;30729;49.486;10.792;2023-10-08T13:53:50;9.68;;;3.80;;
44995;SDS011;30729;49.486;10.792;2023-10-08T13:56:24;9.07;;;4.18;;
44995;SDS011;30729;49.486;10.792;2023-10-08T13:58:51;10.05;;;4.00;;
44995;SDS011;30729;49.486;10.792;2023-10-08T14:01:21;11.45;;;4.78;;
44995;SDS011;30729;49.486;10.792;2023-10-08T14:03:46;12.68;;;3.85;;
44995;SDS011;30729;49.486;10.792;2023-10-08T14:06:12;11.32;;;4.22;;
44995;SDS011;30729;49.486;10.792;2023-10-08T14:08:37;13.93;;;4.27;;
44995;SDS011;30729;49.486;10.792;2023-10-08T14:11:04;13.60;;;4.50;;
44995;SDS011;30729;49.486;10.792;2023-10-08T14:13:29;11.20;;;4.50;;
44995;SDS011;30729;49.486;10.792;2023-10-08T14:15:56;11.88;;;4.25;;
44995;SDS011;30729;49.486;10.792;2023-10-08T14:18:22;13.70;;;4.68;;
44995;SDS011;30729;49.486;10.792;2023-10-08T14:20:51;11.10;;;4.25;;
44995;SDS011;30729;49.486;10.792;2023-10-08T14:23:18;16.00;;;4.72;;
44995;SDS011;30729;49.486;10.792;2023-10-08T14:25:47;10.35;;;4.53;;
44995;SDS011;30729;49.486;10.792;2023-10-08T14:28:14;11.15;;;4.70;;
44995;SDS011;30729;49.486;10.792;2023-10-08T14:30:47;13.30;;;4.45;;
44995;SDS011;30729;49.486;10.792;2023-10-08T14:33:12;9.95;;;4.63;;
44995;SDS011;30729;49.486;10.792;2023-10-08T14:35:48;9.50;;;4.38;;
44995;SDS011;30729;49.486;10.792;2023-10-08T14:38:32;14.70;;;5.50;;
44995;SDS011;30729;49.486;10.792;2023-10-08T14:41:16;12.88;;;4.47;;
44995;SDS011;30729;49.486;10.792;2023-10-08T14:44:00;12.63;;;4.72;;
44995;SDS011;30729;49.486;10.792;2023-10-08T14:46:25;10.45;;;4.25;;
44995;SDS011;30729;49.486;10.792;2023-10-08T14:48:52;11.90;;;4.43;;
44995;SDS011;30729;49.486;10.792;2023-10-08T14:51:20;13.43;;;4.72;;